Time;durP1;ratioP1;P1;durP2;ratioP2;P2;SDS_P1;SDS_P2;PMS_P1;PMS_P2;Temp;Humidity;BMP_temperature;BMP_pressure;BME280_temperature;BME280_humidity;BME280_pressure;Samples;Min_cycle;Max_cycle;Signal;HPM_P1;HPM_P2
2023/02/28 16:00:19;;;;;;;14.00;11.23;;;7.30;67.40;;;;;;6007079;23;20402;-81
2023/02/28 16:02:46;;;;;;;16.35;12.50;;;7.20;66.50;;;;;;5984900;23;20383;-80
2023/02/28 16:05:30;;;;;;;16.27;12.30;;;7.30;65.50;;;;;;5983114;23;20379;-80
2023/02/28 16:08:17;;;;;;;14.48;11.80;;;7.20;66.50;;;;;;5981902;23;20416;-81
2023/02/28 16:10:46;;;;;;;15.88;11.93;;;7.20;66.70;;;;;;5983165;23;20450;-81
2023/02/28 16:13:15;;;;;;;15.82;11.38;;;7.20;65.80;;;;;;5982999;23;20374;-81
2023/02/28 16:15:44;;;;;;;15.88;11.45;;;7.20;66.70;;;;;;5983966;23;20410;-81
2023/02/28 16:18:12;;;;;;;15.88;11.90;;;7.00;66.80;;;;;;6007281;23;20698;-80
2023/02/28 16:20:40;;;;;;;15.45;11.82;;;6.90;68.60;;;;;;5983677;23;20382;-81
2023/02/28 16:23:07;;;;;;;15.52;11.48;;;7.00;69.50;;;;;;5982453;23;20408;-81
2023/02/28 16:25:38;;;;;;;15.45;11.55;;;7.10;67.70;;;;;;5984128;23;20393;-81
2023/02/28 16:28:12;;;;;;;14.18;12.00;;;7.10;66.20;;;;;;5982759;23;20397;-80
2023/02/28 16:30:39;;;;;;;15.45;11.80;;;7.20;66.00;;;;;;6006750;23;20442;-81
2023/02/28 16:33:08;;;;;;;17.15;11.88;;;7.20;66.10;;;;;;5982329;23;20386;-81
2023/02/28 16:35:35;;;;;;;14.70;11.80;;;7.20;66.90;;;;;;5982888;23;20394;-81
2023/02/28 16:38:01;;;;;;;15.50;12.13;;;6.80;69.90;;;;;;5982320;23;20434;-80
2023/02/28 16:40:34;;;;;;;19.33;12.15;;;6.70;71.20;;;;;;5983413;23;20382;-81
2023/02/28 16:43:13;;;;;;;15.32;11.18;;;6.80;70.00;;;;;;5983310;23;20386;-80
2023/02/28 16:45:40;;;;;;;15.27;11.75;;;7.00;69.40;;;;;;5982792;23;20418;-80
2023/02/28 16:48:13;;;;;;;16.45;12.57;;;6.90;70.50;;;;;;5981536;23;20800;-81
2023/02/28 16:50:40;;;;;;;16.20;12.60;;;6.60;72.50;;;;;;5983078;23;20421;-81
2023/02/28 16:53:07;;;;;;;17.58;12.93;;;6.60;72.80;;;;;;5982102;23;20394;-81
2023/02/28 16:55:35;;;;;;;25.45;18.90;;;6.80;72.70;;;;;;5982614;23;20418;-82
2023/02/28 16:58:03;;;;;;;23.70;17.42;;;6.40;72.40;;;;;;5981990;23;20741;-81
2023/02/28 17:00:31;;;;;;;27.85;19.30;;;6.60;74.90;;;;;;5983584;23;20430;-81
2023/02/28 17:03:02;;;;;;;27.27;19.30;;;6.60;71.90;;;;;;5983129;23;20438;-80
2023/02/28 17:05:38;;;;;;;26.48;18.75;;;6.60;73.20;;;;;;5982807;23;20391;-82
2023/02/28 17:08:05;;;;;;;25.45;17.65;;;6.60;74.80;;;;;;6005583;23;20461;-81
2023/02/28 17:10:32;;;;;;;26.63;19.53;;;6.60;74.90;;;;;;5982285;23;20741;-80
2023/02/28 17:12:59;;;;;;;28.05;19.42;;;6.50;76.10;;;;;;5982932;23;20397;-80
2023/02/28 17:15:40;;;;;;;27.27;18.38;;;6.40;77.30;;;;;;5985666;23;20446;-80
2023/02/28 17:18:14;;;;;;;26.93;18.47;;;6.40;77.40;;;;;;5983154;23;20470;-81
2023/02/28 17:20:42;;;;;;;22.98;17.17;;;6.30;77.70;;;;;;5982798;23;20714;-82
2023/02/28 17:23:09;;;;;;;23.13;16.05;;;6.30;77.90;;;;;;5983436;23;20691;-81
2023/02/28 17:25:36;;;;;;;24.83;16.30;;;5.80;83.00;;;;;;5982454;23;20437;-82
2023/02/28 17:28:03;;;;;;;21.80;15.88;;;5.60;86.80;;;;;;5982876;23;20383;-80
2023/02/28 17:30:33;;;;;;;26.80;16.50;;;5.60;86.20;;;;;;5982225;23;20389;-82
2023/02/28 17:33:01;;;;;;;31.17;18.67;;;5.70;85.30;;;;;;5983442;23;20410;-81
2023/02/28 17:35:28;;;;;;;20.73;15.88;;;5.30;91.50;;;;;;5981557;23;20374;-81
2023/02/28 17:37:56;;;;;;;24.95;17.58;;;4.80;95.90;;;;;;5982220;23;20745;-82
2023/02/28 17:40:23;;;;;;;26.35;18.90;;;4.60;97.00;;;;;;5978658;23;20709;-81
2023/02/28 17:42:51;;;;;;;26.63;17.83;;;4.60;96.40;;;;;;5981978;23;20793;-80
2023/02/28 17:45:19;;;;;;;23.95;17.50;;;5.00;94.70;;;;;;5983087;23;20394;-82
2023/02/28 17:47:49;;;;;;;22.73;16.55;;;5.20;93.50;;;;;;5984158;23;20401;-82
2023/02/28 17:50:19;;;;;;;22.88;17.10;;;4.90;95.20;;;;;;5982669;23;20378;-81
2023/02/28 17:52:47;;;;;;;22.43;15.93;;;4.90;95.50;;;;;;5980450;23;20385;-80
2023/02/28 17:55:14;;;;;;;23.92;15.70;;;5.00;96.30;;;;;;5981423;23;20390;-82
2023/02/28 17:57:41;;;;;;;19.33;15.48;;;4.80;97.70;;;;;;6005786;23;20402;-81
2023/02/28 18:00:13;;;;;;;22.40;15.35;;;4.90;97.60;;;;;;5981477;23;20390;-80
2023/02/28 18:02:40;;;;;;;32.97;16.75;;;5.10;96.30;;;;;;5981570;23;20936;-82
2023/02/28 18:05:07;;;;;;;20.30;15.45;;;5.10;95.90;;;;;;5982636;23;20425;-81
2023/02/28 18:07:37;;;;;;;22.15;15.88;;;5.10;94.00;;;;;;5981433;23;20393;-80
2023/02/28 18:10:07;;;;;;;25.13;16.17;;;5.10;94.40;;;;;;5981814;23;20379;-81
2023/02/28 18:12:34;;;;;;;26.95;18.00;;;4.80;95.80;;;;;;5981700;23;21160;-79
2023/02/28 18:15:01;;;;;;;26.85;18.70;;;4.70;96.80;;;;;;5981954;23;20382;-80
2023/02/28 18:17:28;;;;;;;30.58;19.33;;;4.50;98.80;;;;;;5981928;23;20447;-78
2023/02/28 18:19:58;;;;;;;26.88;18.27;;;4.30;99.90;;;;;;5983128;23;20382;-81
2023/02/28 18:22:25;;;;;;;24.98;17.95;;;4.20;99.80;;;;;;5982160;23;20390;-80
2023/02/28 18:24:54;;;;;;;25.10;16.55;;;4.30;99.30;;;;;;5982527;23;20374;-79
2023/02/28 18:27:21;;;;;;;25.63;17.50;;;4.50;95.90;;;;;;5982952;23;20856;-78
2023/02/28 18:29:51;;;;;;;29.40;19.67;;;4.50;97.00;;;;;;5980396;23;20448;-78
2023/02/28 18:32:18;;;;;;;28.52;21.10;;;4.20;98.20;;;;;;5981508;23;20721;-79
2023/02/28 18:34:46;;;;;;;37.50;26.52;;;4.30;99.50;;;;;;5979719;23;20371;-79
2023/02/28 18:37:14;;;;;;;50.05;36.13;;;4.30;99.10;;;;;;6005282;23;20438;-78
2023/02/28 18:39:41;;;;;;;64.47;39.88;;;3.80;99.90;;;;;;5980974;23;20815;-79
2023/02/28 18:42:09;;;;;;;65.32;40.13;;;3.60;99.90;;;;;;5982779;23;20382;-80
2023/02/28 18:44:36;;;;;;;59.25;38.55;;;3.50;99.90;;;;;;5980846;23;20394;-79
2023/02/28 18:47:03;;;;;;;49.77;33.27;;;3.50;99.90;;;;;;5981699;23;20499;-79
2023/02/28 18:49:34;;;;;;;49.72;32.33;;;3.60;99.90;;;;;;5979476;23;20788;-79
2023/02/28 18:52:01;;;;;;;37.58;25.92;;;3.90;99.90;;;;;;5957591;23;20887;-78
2023/02/28 18:54:29;;;;;;;33.73;24.03;;;4.00;99.90;;;;;;5979732;23;20390;-79
2023/02/28 18:56:56;;;;;;;36.42;27.45;;;3.90;99.90;;;;;;5981644;23;20698;-80
2023/02/28 18:59:23;;;;;;;40.75;29.13;;;3.70;99.90;;;;;;5981096;23;20465;-79
2023/02/28 19:01:50;;;;;;;42.42;28.98;;;3.80;99.90;;;;;;5980665;23;20395;-80
2023/02/28 19:04:17;;;;;;;36.88;26.92;;;3.90;99.90;;;;;;5980532;23;20872;-79
2023/02/28 19:06:44;;;;;;;30.80;22.95;;;3.80;99.90;;;;;;5977956;23;20390;-79
2023/02/28 19:09:11;;;;;;;30.25;20.95;;;3.70;99.90;;;;;;5979781;23;20438;-79
2023/02/28 19:11:39;;;;;;;33.35;23.40;;;3.30;99.90;;;;;;5980434;23;20393;-79
2023/02/28 19:14:10;;;;;;;37.95;26.17;;;3.40;99.90;;;;;;5982546;23;20382;-80
2023/02/28 19:16:37;;;;;;;35.53;25.33;;;3.50;99.90;;;;;;5982280;23;20774;-78
2023/02/28 19:19:04;;;;;;;34.22;23.90;;;3.50;99.90;;;;;;5982133;23;20410;-78
2023/02/28 19:21:35;;;;;;;35.70;23.85;;;3.30;99.90;;;;;;5982451;23;20378;-79
2023/02/28 19:24:03;;;;;;;34.97;23.02;;;3.60;99.90;;;;;;5983251;23;20383;-79
2023/02/28 19:26:32;;;;;;;33.50;23.33;;;3.40;99.90;;;;;;5979830;23;20442;-81
2023/02/28 19:29:03;;;;;;;32.92;24.48;;;3.20;99.90;;;;;;5982580;23;20386;-80
2023/02/28 19:31:30;;;;;;;32.85;23.25;;;3.50;99.90;;;;;;5981244;23;20458;-81
2023/02/28 19:33:59;;;;;;;31.58;22.42;;;3.50;99.90;;;;;;5983824;23;20421;-80
2023/02/28 19:36:27;;;;;;;35.78;23.50;;;3.20;99.90;;;;;;5983738;23;20413;-81
2023/02/28 19:38:57;;;;;;;32.80;22.25;;;3.40;99.90;;;;;;5982642;23;20386;-80
2023/02/28 19:41:29;;;;;;;77.35;42.30;;;3.30;99.90;;;;;;5984311;23;20382;-79
2023/02/28 19:43:59;;;;;;;34.03;23.35;;;2.80;99.90;;;;;;5983138;23;20404;-81
2023/02/28 19:46:27;;;;;;;30.98;21.60;;;3.00;99.90;;;;;;5984022;23;20417;-81
2023/02/28 19:48:54;;;;;;;29.92;20.92;;;3.20;99.90;;;;;;6007822;23;20406;-81
2023/02/28 19:51:22;;;;;;;30.73;21.83;;;3.20;99.90;;;;;;5983003;23;20404;-80
2023/02/28 19:53:52;;;;;;;32.83;23.63;;;3.20;99.90;;;;;;5979922;23;20417;-82
2023/02/28 19:56:20;;;;;;;34.25;23.55;;;2.80;99.90;;;;;;5982449;23;20804;-81
2023/02/28 19:58:48;;;;;;;36.35;24.58;;;3.00;99.90;;;;;;6006392;23;20387;-81
2023/02/28 20:01:17;;;;;;;36.05;24.15;;;3.10;99.90;;;;;;5981589;23;20385;-81
2023/02/28 20:03:48;;;;;;;36.27;23.50;;;2.90;99.90;;;;;;5982420;23;20486;-80
2023/02/28 20:06:17;;;;;;;34.45;23.75;;;3.00;99.90;;;;;;5983454;23;20928;-81
2023/02/28 20:08:44;;;;;;;33.90;24.20;;;3.00;99.90;;;;;;5982482;23;20384;-81
2023/02/28 20:11:14;;;;;;;36.58;23.80;;;3.10;99.90;;;;;;5982011;23;20387;-80
2023/02/28 20:13:42;;;;;;;29.98;21.00;;;3.00;99.90;;;;;;5981295;23;20725;-81
2023/02/28 20:16:11;;;;;;;28.40;20.15;;;2.70;99.90;;;;;;5982865;23;20502;-81
2023/02/28 20:18:42;;;;;;;30.80;20.87;;;2.60;99.90;;;;;;5959027;23;20383;-81
2023/02/28 20:21:12;;;;;;;29.70;20.13;;;2.40;99.90;;;;;;5960554;23;20387;-82
2023/02/28 20:23:42;;;;;;;29.15;21.58;;;2.10;99.90;;;;;;5979745;23;20456;-80
2023/02/28 20:26:10;;;;;;;34.28;23.05;;;2.10;99.90;;;;;;5982348;23;20412;-81
2023/02/28 20:28:38;;;;;;;53.38;34.75;;;1.90;99.90;;;;;;5981737;23;20438;-81
2023/02/28 20:31:19;;;;;;;46.47;31.27;;;2.00;99.90;;;;;;5981979;23;20447;-80
2023/02/28 20:33:48;;;;;;;44.13;28.05;;;1.90;99.90;;;;;;5980744;23;25078;-81
2023/02/28 20:36:19;;;;;;;38.65;27.48;;;2.20;99.90;;;;;;5982270;23;20409;-80
2023/02/28 20:38:46;;;;;;;36.97;26.40;;;2.40;99.90;;;;;;5980938;23;20437;-80
2023/02/28 20:41:17;;;;;;;39.40;24.80;;;2.40;99.90;;;;;;5959766;23;22392;-81
2023/02/28 20:43:44;;;;;;;31.92;23.35;;;2.20;99.90;;;;;;5981847;23;20392;-81
2023/02/28 20:46:12;;;;;;;34.40;23.63;;;2.10;99.90;;;;;;5982959;23;20391;-81
2023/02/28 20:48:41;;;;;;;33.65;23.30;;;2.10;99.90;;;;;;5981516;23;20414;-79
2023/02/28 20:51:10;;;;;;;33.92;23.73;;;2.10;99.90;;;;;;5982832;23;20413;-80
2023/02/28 20:53:39;;;;;;;34.85;23.52;;;2.20;99.90;;;;;;5982123;23;20407;-79
2023/02/28 20:56:17;;;;;;;37.28;25.23;;;2.30;99.90;;;;;;5981380;23;20844;-80
2023/02/28 20:58:49;;;;;;;33.83;23.50;;;2.10;99.90;;;;;;5958882;23;20382;-80
2023/02/28 21:01:24;;;;;;;36.67;23.70;;;1.90;99.90;;;;;;5982349;23;20374;-80
2023/02/28 21:03:52;;;;;;;36.13;23.67;;;2.10;99.90;;;;;;5982029;23;20407;-81
2023/02/28 21:06:22;;;;;;;32.60;22.52;;;2.20;99.90;;;;;;5982675;23;20387;-79
2023/02/28 21:08:50;;;;;;;34.03;23.40;;;2.10;99.90;;;;;;5958212;23;20888;-79
2023/02/28 21:11:24;;;;;;;36.05;25.30;;;1.50;99.90;;;;;;5983071;23;20417;-80
2023/02/28 21:13:53;;;;;;;35.53;23.75;;;1.20;99.90;;;;;;5982318;23;20402;-82
2023/02/28 21:16:24;;;;;;;34.15;22.80;;;1.30;99.90;;;;;;5982056;23;20857;-81
2023/02/28 21:18:54;;;;;;;34.90;23.30;;;1.60;99.90;;;;;;5981236;23;20380;-81
2023/02/28 21:21:23;;;;;;;36.38;24.52;;;1.60;99.90;;;;;;5981757;23;20385;-80
2023/02/28 21:23:51;;;;;;;34.00;23.35;;;1.40;99.90;;;;;;5981166;23;20381;-80
2023/02/28 21:26:21;;;;;;;34.28;22.48;;;1.50;99.90;;;;;;5981740;23;20380;-80
2023/02/28 21:28:58;;;;;;;32.17;22.63;;;1.30;99.90;;;;;;5981998;23;20410;-80
2023/02/28 21:31:27;;;;;;;32.33;22.43;;;1.00;99.90;;;;;;5983764;23;20499;-81
2023/02/28 21:33:56;;;;;;;36.33;24.75;;;1.10;99.90;;;;;;5982990;23;20390;-80
2023/02/28 21:36:26;;;;;;;37.08;24.33;;;1.20;99.90;;;;;;5983650;23;20444;-80
2023/02/28 21:38:59;;;;;;;41.65;26.98;;;1.40;99.90;;;;;;5982552;23;20411;-80
2023/02/28 21:41:29;;;;;;;52.22;32.33;;;1.70;99.90;;;;;;5983083;23;25157;-80
2023/02/28 21:43:56;;;;;;;58.30;33.85;;;1.50;99.90;;;;;;5982269;23;20381;-80
2023/02/28 21:46:26;;;;;;;58.78;35.55;;;1.50;99.90;;;;;;6007866;23;20370;-80
2023/02/28 21:48:54;;;;;;;54.50;33.95;;;1.30;99.90;;;;;;5982044;23;20384;-80
2023/02/28 21:51:29;;;;;;;47.77;31.77;;;1.20;99.90;;;;;;5974495;23;20402;-81
2023/02/28 21:53:58;;;;;;;52.13;32.97;;;1.30;99.90;;;;;;5979475;23;20409;-81
2023/02/28 21:56:28;;;;;;;55.88;31.83;;;1.40;99.90;;;;;;5980695;23;20694;-80
2023/02/28 21:58:59;;;;;;;42.35;27.27;;;1.10;99.90;;;;;;5968742;23;20378;-80
2023/02/28 22:01:38;;;;;;;41.38;26.60;;;1.00;99.90;;;;;;5981552;23;20381;-79
2023/02/28 22:04:08;;;;;;;38.47;26.15;;;1.00;99.90;;;;;;6005588;23;20386;-83
2023/02/28 22:06:38;;;;;;;43.05;27.33;;;1.10;99.90;;;;;;5982518;23;20406;-82
2023/02/28 22:09:08;;;;;;;44.40;28.33;;;1.20;99.90;;;;;;5980965;23;20394;-79
2023/02/28 22:11:37;;;;;;;42.92;26.85;;;1.00;99.90;;;;;;6007774;23;20438;-79
2023/02/28 22:14:05;;;;;;;40.33;24.80;;;1.10;99.90;;;;;;5981206;23;20383;-80
2023/02/28 22:16:33;;;;;;;31.88;22.52;;;1.20;99.90;;;;;;5983014;23;20706;-80
2023/02/28 22:19:18;;;;;;;34.08;22.23;;;0.70;99.90;;;;;;5985275;23;20366;-80
2023/02/28 22:21:46;;;;;;;34.10;21.45;;;0.70;99.90;;;;;;5982797;23;20387;-80
2023/02/28 22:24:14;;;;;;;34.03;22.17;;;0.90;99.90;;;;;;5982316;23;20414;-80
2023/02/28 22:26:41;;;;;;;36.60;22.80;;;0.70;99.90;;;;;;5983403;23;20385;-79
2023/02/28 22:29:08;;;;;;;35.50;23.23;;;0.80;99.90;;;;;;6007124;23;20391;-80
2023/02/28 22:31:35;;;;;;;36.53;23.70;;;0.80;99.90;;;;;;5983475;23;20384;-80
2023/02/28 22:34:06;;;;;;;35.55;22.70;;;0.60;99.90;;;;;;5982480;23;20417;-80
2023/02/28 22:36:34;;;;;;;31.85;21.35;;;0.30;99.90;;;;;;5982944;23;20407;-80
2023/02/28 22:39:04;;;;;;;32.90;21.48;;;0.50;99.90;;;;;;5981732;23;20397;-82
2023/02/28 22:41:31;;;;;;;36.40;24.10;;;0.40;99.90;;;;;;5982617;23;20912;-79
2023/02/28 22:44:01;;;;;;;34.33;22.67;;;0.50;99.90;;;;;;5980946;23;20390;-80
2023/02/28 22:46:30;;;;;;;37.35;25.08;;;0.60;99.90;;;;;;5982254;23;20858;-80
2023/02/28 22:48:59;;;;;;;38.53;24.70;;;0.70;99.90;;;;;;5982915;23;20406;-80
2023/02/28 22:51:27;;;;;;;37.85;25.15;;;0.60;99.90;;;;;;5982093;23;20378;-79
2023/02/28 22:53:55;;;;;;;36.70;23.58;;;0.50;99.90;;;;;;5983042;23;20885;-82
2023/02/28 22:56:24;;;;;;;39.00;24.70;;;0.60;99.90;;;;;;5981682;23;20377;-82
2023/02/28 22:58:53;;;;;;;43.65;26.23;;;0.10;99.90;;;;;;5982144;23;20694;-82
2023/02/28 23:01:22;;;;;;;40.47;26.02;;;0.20;99.90;;;;;;5981402;23;20433;-79
2023/02/28 23:03:50;;;;;;;41.95;26.63;;;0.40;99.90;;;;;;5981714;23;20393;-80
2023/02/28 23:06:21;;;;;;;43.83;27.90;;;0.40;99.90;;;;;;5981961;23;20770;-82
2023/02/28 23:08:50;;;;;;;46.22;29.60;;;0.30;99.90;;;;;;5982427;23;20382;-82
2023/02/28 23:11:20;;;;;;;43.75;27.73;;;0.10;99.90;;;;;;5981718;23;20925;-82
2023/02/28 23:13:57;;;;;;;43.80;27.55;;;0.20;99.90;;;;;;6006751;23;20393;-81
2023/02/28 23:16:42;;;;;;;42.72;29.38;;;0.30;99.90;;;;;;5981632;23;20374;-81
2023/02/28 23:19:12;;;;;;;47.30;28.98;;;0.20;99.90;;;;;;6005750;23;20418;-81
2023/02/28 23:21:40;;;;;;;43.90;28.83;;;0.50;99.90;;;;;;5982711;23;20438;-81
2023/02/28 23:24:09;;;;;;;55.67;35.42;;;0.70;99.90;;;;;;5982058;23;20406;-81
2023/02/28 23:26:42;;;;;;;65.38;39.30;;;0.50;99.90;;;;;;5983090;23;20449;-81
2023/02/28 23:29:11;;;;;;;51.65;33.47;;;0.60;99.90;;;;;;5981986;23;20769;-83
2023/02/28 23:31:38;;;;;;;45.03;30.08;;;0.70;99.90;;;;;;5983146;23;20382;-81
2023/02/28 23:34:06;;;;;;;40.30;26.90;;;0.70;99.90;;;;;;5982031;23;20410;-81
2023/02/28 23:36:33;;;;;;;38.03;26.02;;;0.70;99.90;;;;;;5983231;23;20435;-82
2023/02/28 23:39:00;;;;;;;42.80;26.65;;;0.50;99.90;;;;;;5983527;23;20394;-79
2023/02/28 23:41:27;;;;;;;45.95;29.17;;;0.30;99.90;;;;;;5981897;23;20378;-80
2023/02/28 23:43:54;;;;;;;47.35;31.48;;;0.30;99.90;;;;;;5983041;23;20370;-80
2023/02/28 23:46:21;;;;;;;57.33;34.90;;;0.30;99.90;;;;;;5982355;23;20455;-79
2023/02/28 23:48:49;;;;;;;54.13;33.15;;;0.40;99.90;;;;;;5982197;23;20374;-80
2023/02/28 23:51:18;;;;;;;50.45;32.78;;;0.20;99.90;;;;;;5982500;23;20449;-80
2023/02/28 23:53:48;;;;;;;48.42;32.40;;;0.30;99.90;;;;;;5983172;23;20387;-80
2023/02/28 23:56:19;;;;;;;43.13;27.98;;;0.60;99.90;;;;;;5981772;23;20473;-79
2023/02/28 23:58:46;;;;;;;42.88;27.73;;;0.90;99.90;;;;;;5982931;23;20391;-79
